Time;durP1;ratioP1;P1;durP2;ratioP2;P2;SDS_P1;SDS_P2;PMS_P1;PMS_P2;Temp;Humidity;BMP_temperature;BMP_pressure;BME280_temperature;BME280_humidity;BME280_pressure;Samples;Min_cycle;Max_cycle;Signal;HPM_P1;HPM_P2
2022/11/22 00:00:07;;;;;;;30.85;15.93;;;3.50;99.90;;;;;;6138911;22;20017;-87
2022/11/22 00:02:33;;;;;;;29.67;15.10;;;3.50;99.90;;;;;;6137292;23;20101;-87
2022/11/22 00:04:59;;;;;;;28.38;15.13;;;3.70;99.90;;;;;;6139037;23;20052;-87
2022/11/22 00:07:25;;;;;;;31.05;15.02;;;3.50;99.90;;;;;;6137414;23;20040;-87
2022/11/22 00:09:50;;;;;;;28.33;15.70;;;3.50;99.90;;;;;;6162068;23;20062;-87
2022/11/22 00:12:16;;;;;;;30.20;15.55;;;3.60;99.90;;;;;;6137862;23;20013;-88
2022/11/22 00:14:42;;;;;;;27.88;15.00;;;3.50;99.90;;;;;;6162314;23;20049;-87
2022/11/22 00:17:07;;;;;;;29.98;15.75;;;3.50;99.90;;;;;;6139510;23;20416;-87
2022/11/22 00:19:34;;;;;;;29.42;15.60;;;3.70;99.90;;;;;;6162148;23;20013;-88
2022/11/22 00:22:00;;;;;;;30.92;15.55;;;3.50;99.90;;;;;;6162229;23;20420;-87
2022/11/22 00:24:26;;;;;;;27.30;15.63;;;3.60;99.90;;;;;;6137364;23;20044;-87
2022/11/22 00:26:51;;;;;;;29.35;16.20;;;3.60;99.90;;;;;;6136995;23;20451;-87
2022/11/22 00:29:17;;;;;;;29.50;15.38;;;3.60;99.90;;;;;;6137430;23;20024;-88
2022/11/22 00:31:43;;;;;;;33.45;16.40;;;3.50;99.90;;;;;;6139179;23;20094;-86
2022/11/22 00:34:08;;;;;;;27.13;15.15;;;3.40;99.90;;;;;;6137024;23;20310;-87
2022/11/22 00:36:34;;;;;;;30.88;15.77;;;3.40;99.90;;;;;;6138241;23;20412;-87
2022/11/22 00:39:02;;;;;;;29.05;15.43;;;3.60;99.90;;;;;;6161568;23;20017;-88
2022/11/22 00:41:28;;;;;;;28.25;15.85;;;3.50;99.90;;;;;;6161112;23;20417;-87
2022/11/22 00:43:53;;;;;;;28.15;15.07;;;3.40;99.90;;;;;;6137052;23;20112;-88
2022/11/22 00:46:19;;;;;;;33.30;16.55;;;3.50;99.90;;;;;;6137901;23;20172;-87
2022/11/22 00:48:45;;;;;;;31.67;16.13;;;3.40;99.90;;;;;;6162177;23;20017;-87
2022/11/22 00:51:11;;;;;;;28.85;15.02;;;3.40;99.90;;;;;;6137927;23;20013;-87
2022/11/22 00:53:36;;;;;;;31.38;15.77;;;3.40;99.90;;;;;;6162345;23;20017;-88
2022/11/22 00:56:02;;;;;;;27.67;15.40;;;3.40;99.90;;;;;;6138352;23;20040;-88
2022/11/22 00:58:28;;;;;;;29.38;15.77;;;3.40;99.90;;;;;;6136778;23;20277;-87
2022/11/22 01:00:54;;;;;;;33.03;16.02;;;3.40;99.90;;;;;;6138708;23;20088;-86
2022/11/22 01:03:19;;;;;;;31.83;17.25;;;3.40;99.90;;;;;;6138340;23;20098;-87
2022/11/22 01:05:45;;;;;;;30.75;15.55;;;3.40;99.90;;;;;;6138853;23;20058;-87
2022/11/22 01:08:11;;;;;;;31.88;15.93;;;3.30;99.90;;;;;;6136381;23;20543;-87
2022/11/22 01:10:37;;;;;;;32.38;16.60;;;3.20;99.90;;;;;;6163008;23;20095;-87
2022/11/22 01:13:03;;;;;;;32.03;15.85;;;3.30;99.90;;;;;;6137337;23;20488;-87
2022/11/22 01:15:28;;;;;;;42.20;20.55;;;3.40;99.90;;;;;;6163256;23;20013;-88
2022/11/22 01:17:54;;;;;;;37.47;20.25;;;3.30;99.90;;;;;;6161994;23;20021;-87
2022/11/22 01:20:23;;;;;;;39.92;20.27;;;3.20;99.90;;;;;;6137807;23;20017;-87
2022/11/22 01:22:55;;;;;;;39.45;20.83;;;3.20;99.90;;;;;;6136688;23;20047;-88
2022/11/22 01:25:21;;;;;;;37.90;17.70;;;3.30;99.90;;;;;;6137475;23;20017;-87
2022/11/22 01:27:47;;;;;;;34.55;17.67;;;3.20;99.90;;;;;;6137355;23;20023;-88
2022/11/22 01:30:13;;;;;;;33.97;17.50;;;3.20;99.90;;;;;;6138063;23;20013;-87
2022/11/22 01:32:38;;;;;;;32.10;15.55;;;3.30;99.90;;;;;;6136181;23;20013;-88
2022/11/22 01:35:05;;;;;;;36.97;17.35;;;3.30;99.90;;;;;;6136809;23;20710;-87
2022/11/22 01:37:30;;;;;;;35.35;15.30;;;3.30;99.90;;;;;;6137062;23;20027;-87
2022/11/22 01:39:56;;;;;;;36.40;17.27;;;3.30;99.90;;;;;;6136415;23;20017;-86
2022/11/22 01:42:21;;;;;;;36.90;18.35;;;3.20;99.90;;;;;;6137883;23;20017;-87
2022/11/22 01:44:48;;;;;;;37.58;16.70;;;3.40;99.90;;;;;;6137255;23;20462;-87
2022/11/22 01:47:23;;;;;;;37.17;17.40;;;3.40;99.90;;;;;;6138486;23;20209;-87
2022/11/22 01:50:05;;;;;;;33.63;17.58;;;3.30;99.90;;;;;;6161864;23;20013;-86
2022/11/22 01:52:33;;;;;;;37.40;18.02;;;3.40;99.90;;;;;;6136846;23;20441;-86
2022/11/22 01:55:04;;;;;;;38.75;17.30;;;3.40;99.90;;;;;;6162214;23;20385;-87
2022/11/22 01:57:34;;;;;;;37.38;18.58;;;3.30;99.90;;;;;;6137062;23;20009;-87
2022/11/22 02:00:03;;;;;;;39.13;18.10;;;3.40;99.90;;;;;;6162584;23;20017;-86
2022/11/22 02:02:29;;;;;;;38.53;19.02;;;3.30;99.90;;;;;;6137375;23;20404;-87
2022/11/22 02:04:56;;;;;;;38.42;18.52;;;3.40;99.90;;;;;;6137923;23;20068;-86
2022/11/22 02:07:34;;;;;;;38.45;18.13;;;3.40;99.90;;;;;;6138059;23;20091;-87
2022/11/22 02:10:00;;;;;;;41.97;18.88;;;3.30;99.90;;;;;;6162281;23;20110;-87
2022/11/22 02:12:28;;;;;;;38.92;18.75;;;3.30;99.90;;;;;;6161636;23;20048;-86
2022/11/22 02:14:54;;;;;;;34.67;17.38;;;3.50;99.90;;;;;;6162955;23;20262;-86
2022/11/22 02:17:21;;;;;;;44.03;18.90;;;3.40;99.90;;;;;;6162705;23;20040;-87
2022/11/22 02:19:48;;;;;;;37.47;18.58;;;3.50;99.90;;;;;;6135761;23;20130;-88
2022/11/22 02:22:43;;;;;;;38.50;18.02;;;3.50;99.90;;;;;;6135987;23;20021;-87
2022/11/22 02:25:36;;;;;;;39.58;18.25;;;3.60;99.90;;;;;;6137607;23;20059;-87
2022/11/22 02:28:09;;;;;;;37.83;17.65;;;3.40;99.90;;;;;;6135817;22;20654;-86
2022/11/22 02:30:39;;;;;;;37.83;18.08;;;3.50;99.90;;;;;;6137851;23;20078;-86
2022/11/22 02:33:05;;;;;;;39.17;18.73;;;3.40;99.90;;;;;;6161286;23;20088;-87
2022/11/22 02:35:31;;;;;;;40.13;18.20;;;3.60;99.90;;;;;;6136867;23;20108;-86
2022/11/22 02:38:24;;;;;;;38.35;17.63;;;3.60;99.90;;;;;;6134824;23;20475;-87
2022/11/22 02:41:06;;;;;;;35.95;17.60;;;3.50;99.90;;;;;;6137406;23;20552;-86
2022/11/22 02:43:39;;;;;;;41.25;18.35;;;3.60;99.90;;;;;;6160272;23;20017;-87
2022/11/22 02:46:07;;;;;;;36.28;18.25;;;3.70;99.90;;;;;;6161554;23;20013;-87
2022/11/22 02:48:33;;;;;;;37.25;18.48;;;3.60;99.90;;;;;;6136647;23;20020;-87
2022/11/22 02:50:58;;;;;;;41.88;18.10;;;3.60;99.90;;;;;;6162166;23;20020;-86
2022/11/22 02:53:24;;;;;;;38.83;18.90;;;3.80;99.90;;;;;;6160555;23;20020;-87
2022/11/22 02:55:50;;;;;;;34.60;17.75;;;3.80;99.90;;;;;;6137298;23;20024;-87
2022/11/22 02:58:16;;;;;;;39.97;18.95;;;3.80;99.90;;;;;;6136431;23;20156;-87
2022/11/22 03:00:44;;;;;;;45.85;18.92;;;3.70;99.90;;;;;;6137833;23;20048;-87
2022/11/22 03:03:10;;;;;;;35.38;16.77;;;3.60;99.90;;;;;;6136285;23;20271;-87
2022/11/22 03:05:36;;;;;;;39.72;18.45;;;3.80;99.90;;;;;;6136782;23;20367;-86
2022/11/22 03:08:01;;;;;;;42.20;18.27;;;3.80;99.90;;;;;;6134523;23;20044;-86
2022/11/22 03:10:30;;;;;;;38.28;17.23;;;3.80;99.90;;;;;;6136795;23;20017;-87
2022/11/22 03:12:57;;;;;;;37.17;17.70;;;3.70;99.90;;;;;;6136030;23;20455;-87
2022/11/22 03:15:22;;;;;;;38.58;18.08;;;3.80;99.90;;;;;;6160925;23;20017;-86
2022/11/22 03:17:48;;;;;;;35.13;16.88;;;3.90;99.90;;;;;;6136307;23;20009;-86
2022/11/22 03:20:14;;;;;;;35.50;17.27;;;3.90;99.90;;;;;;6136851;23;20033;-87
2022/11/22 03:22:40;;;;;;;41.40;18.75;;;3.80;99.90;;;;;;6159420;22;20086;-87
2022/11/22 03:25:06;;;;;;;35.80;17.50;;;3.80;99.90;;;;;;6160461;22;20049;-87
2022/11/22 03:27:39;;;;;;;37.90;18.52;;;3.80;99.90;;;;;;6136448;23;20032;-87
2022/11/22 03:30:05;;;;;;;37.45;17.83;;;3.80;99.90;;;;;;6136376;23;20017;-87
2022/11/22 03:32:30;;;;;;;38.80;18.63;;;4.00;99.90;;;;;;6161958;23;20013;-87
2022/11/22 03:34:56;;;;;;;38.33;16.40;;;4.00;99.90;;;;;;6136056;23;20449;-87
2022/11/22 03:37:22;;;;;;;35.88;17.08;;;4.00;99.90;;;;;;6160565;23;20071;-86
2022/11/22 03:39:51;;;;;;;38.67;18.05;;;3.90;99.90;;;;;;6159998;23;20044;-87
2022/11/22 03:42:16;;;;;;;39.78;18.77;;;4.00;99.90;;;;;;6136082;23;20017;-86
2022/11/22 03:44:42;;;;;;;37.30;18.20;;;4.10;99.90;;;;;;6161783;23;20047;-86
2022/11/22 03:47:08;;;;;;;34.30;17.10;;;4.10;99.90;;;;;;6136414;23;20103;-87
2022/11/22 03:49:33;;;;;;;39.35;17.52;;;4.10;99.90;;;;;;6135336;23;20013;-88
2022/11/22 03:51:59;;;;;;;39.70;17.95;;;4.10;99.90;;;;;;6135727;23;20342;-87
2022/11/22 03:54:25;;;;;;;36.95;16.90;;;4.10;99.90;;;;;;6137249;23;20093;-87
2022/11/22 03:56:50;;;;;;;38.97;17.42;;;4.20;99.90;;;;;;6136186;23;20296;-87
2022/11/22 03:59:16;;;;;;;39.13;17.25;;;4.10;99.90;;;;;;6161918;23;20433;-87
2022/11/22 04:01:42;;;;;;;38.88;18.30;;;4.20;99.90;;;;;;6137338;23;20087;-87
2022/11/22 04:04:10;;;;;;;41.83;18.40;;;4.20;99.90;;;;;;6136912;23;20297;-87
2022/11/22 04:06:37;;;;;;;42.70;17.75;;;4.20;99.90;;;;;;6161881;23;20470;-85
2022/11/22 04:09:03;;;;;;;34.05;17.02;;;4.10;99.90;;;;;;6137055;23;20458;-86
2022/11/22 04:11:29;;;;;;;34.22;17.52;;;4.20;99.90;;;;;;6136128;23;20013;-87
2022/11/22 04:16:53;;;;;;;39.97;18.05;;;4.30;99.90;;;;;;6128750;23;20547;-87
2022/11/22 04:19:18;;;;;;;39.50;17.10;;;4.20;99.90;;;;;;6135192;23;20576;-87
2022/11/22 04:21:44;;;;;;;37.00;17.55;;;4.30;99.90;;;;;;6135455;23;20016;-87
2022/11/22 04:26:55;;;;;;;32.95;17.85;;;4.20;99.90;;;;;;6159853;23;20024;-87
2022/11/22 04:29:21;;;;;;;40.75;17.80;;;4.20;99.90;;;;;;6136000;23;20044;-87
2022/11/22 04:34:33;;;;;;;35.92;17.27;;;4.30;99.90;;;;;;6159952;23;20021;-87
2022/11/22 04:37:00;;;;;;;37.55;17.98;;;4.30;99.90;;;;;;6161910;23;20042;-87
2022/11/22 04:39:26;;;;;;;37.80;18.20;;;4.30;99.90;;;;;;6137163;23;20594;-87
2022/11/22 04:44:39;;;;;;;34.88;18.02;;;4.30;99.90;;;;;;6161511;23;20025;-87
2022/11/22 04:47:09;;;;;;;37.50;16.67;;;4.30;99.90;;;;;;6163755;22;20074;-87
2022/11/22 04:49:35;;;;;;;39.35;18.77;;;4.40;99.90;;;;;;6137628;23;20339;-87
2022/11/22 04:54:49;;;;;;;37.35;17.38;;;4.50;99.90;;;;;;6162227;23;20024;-87
2022/11/22 04:57:17;;;;;;;35.83;17.98;;;4.40;99.90;;;;;;6137491;23;20020;-88
2022/11/22 04:59:46;;;;;;;36.92;17.25;;;4.40;99.90;;;;;;6137881;23;20032;-87
2022/11/22 05:02:15;;;;;;;40.25;17.15;;;4.40;99.90;;;;;;6163378;23;20017;-87
2022/11/22 05:04:40;;;;;;;37.92;18.70;;;4.40;99.90;;;;;;6162683;23;20025;-87
2022/11/22 05:07:06;;;;;;;41.40;18.15;;;4.40;99.90;;;;;;6137144;23;20477;-86
2022/11/22 05:09:34;;;;;;;36.47;17.50;;;4.50;99.90;;;;;;6136551;23;20032;-86
2022/11/22 05:11:59;;;;;;;33.20;18.63;;;4.40;99.90;;;;;;6137276;23;20041;-86
2022/11/22 05:14:25;;;;;;;34.80;17.90;;;4.50;99.90;;;;;;6137551;23;20182;-87
2022/11/22 05:16:50;;;;;;;35.45;17.70;;;4.70;99.90;;;;;;6137969;23;20070;-87
2022/11/22 05:19:19;;;;;;;38.38;17.50;;;4.60;99.90;;;;;;6136820;22;20482;-87
2022/11/22 05:21:45;;;;;;;37.35;19.42;;;4.70;99.90;;;;;;6137672;23;20013;-87
2022/11/22 05:24:11;;;;;;;38.38;19.48;;;4.60;99.90;;;;;;6137837;23;20412;-87
2022/11/22 05:26:36;;;;;;;37.85;18.80;;;4.70;99.90;;;;;;6136484;23;20017;-88
2022/11/22 05:29:08;;;;;;;36.90;19.13;;;4.50;99.90;;;;;;6137664;23;20042;-87
2022/11/22 05:31:36;;;;;;;39.83;18.38;;;4.70;99.90;;;;;;6162501;23;20014;-87
2022/11/22 05:34:02;;;;;;;33.25;18.42;;;4.80;99.90;;;;;;6137255;23;20016;-87
2022/11/22 05:36:30;;;;;;;36.70;17.65;;;4.60;99.90;;;;;;6138119;23;20552;-87
2022/11/22 05:38:56;;;;;;;37.33;17.33;;;4.80;99.90;;;;;;6162841;23;20347;-87
2022/11/22 05:41:22;;;;;;;35.40;18.15;;;4.80;99.90;;;;;;6137422;23;20021;-87
2022/11/22 05:43:52;;;;;;;37.88;17.80;;;4.70;99.90;;;;;;6137324;23;20114;-87
2022/11/22 05:46:20;;;;;;;39.75;18.65;;;4.70;99.90;;;;;;6163076;23;20062;-87
2022/11/22 05:48:46;;;;;;;38.90;17.95;;;4.80;99.90;;;;;;6136824;23;20070;-88
2022/11/22 05:51:14;;;;;;;32.72;17.55;;;4.80;99.90;;;;;;6137146;23;20209;-87
2022/11/22 05:53:41;;;;;;;36.30;18.33;;;4.70;99.90;;;;;;6137773;23;20020;-87
2022/11/22 05:56:15;;;;;;;36.70;18.30;;;4.90;99.90;;;;;;6163328;23;20020;-87
2022/11/22 05:58:42;;;;;;;36.95;17.73;;;4.80;99.90;;;;;;6138089;23;20067;-88
2022/11/22 06:01:22;;;;;;;34.53;17.63;;;4.80;99.90;;;;;;6138166;23;20291;-87
2022/11/22 06:03:51;;;;;;;35.53;17.90;;;5.00;99.90;;;;;;6135923;23;20066;-86
2022/11/22 06:06:21;;;;;;;37.28;18.48;;;4.90;99.90;;;;;;6137387;22;20049;-87
2022/11/22 06:08:47;;;;;;;42.25;18.58;;;5.00;99.90;;;;;;6161764;23;20013;-86
2022/11/22 06:11:16;;;;;;;31.45;17.42;;;4.80;99.90;;;;;;6136531;23;20017;-86
2022/11/22 06:13:43;;;;;;;32.13;17.30;;;4.90;99.90;;;;;;6137904;23;20013;-87
2022/11/22 06:16:10;;;;;;;41.42;17.90;;;4.90;99.90;;;;;;6162840;23;20518;-86
2022/11/22 06:18:36;;;;;;;34.15;17.60;;;5.00;99.90;;;;;;6136858;23;20268;-87
2022/11/22 06:21:09;;;;;;;33.20;17.23;;;5.00;99.90;;;;;;6137041;23;20009;-87
2022/11/22 06:23:34;;;;;;;44.20;18.65;;;4.90;99.90;;;;;;6136782;23;20039;-87
2022/11/22 06:26:14;;;;;;;33.65;17.30;;;4.90;99.90;;;;;;6162979;23;20008;-87
2022/11/22 06:28:40;;;;;;;35.17;17.92;;;5.00;99.90;;;;;;6161280;23;20423;-86
2022/11/22 06:31:19;;;;;;;37.63;15.98;;;4.90;99.90;;;;;;6161445;23;20051;-88
2022/11/22 06:33:45;;;;;;;34.75;16.63;;;4.90;99.90;;;;;;6161652;23;20117;-87
2022/11/22 06:36:16;;;;;;;35.15;16.92;;;5.00;99.90;;;;;;6161116;23;20398;-87
2022/11/22 06:38:43;;;;;;;36.33;17.90;;;4.90;99.90;;;;;;6136232;23;20024;-87
2022/11/22 06:41:13;;;;;;;33.33;17.88;;;5.10;99.90;;;;;;6136130;23;20418;-87
2022/11/22 06:43:40;;;;;;;35.25;18.10;;;5.00;99.90;;;;;;6136091;23;20100;-88
2022/11/22 06:46:07;;;;;;;34.15;16.75;;;5.00;99.90;;;;;;6138058;23;20013;-87
2022/11/22 06:48:35;;;;;;;30.45;15.65;;;5.10;99.90;;;;;;6161534;23;20013;-87
2022/11/22 06:51:01;;;;;;;27.83;16.70;;;5.10;99.90;;;;;;6137314;23;20056;-86
2022/11/22 06:53:31;;;;;;;33.75;16.48;;;5.20;99.90;;;;;;6137271;23;20017;-87
2022/11/22 06:56:00;;;;;;;35.90;17.25;;;5.10;99.90;;;;;;6161568;23;20009;-85
2022/11/22 06:58:26;;;;;;;33.08;16.38;;;5.20;99.90;;;;;;6135225;23;20078;-87
2022/11/22 07:00:52;;;;;;;34.03;16.83;;;5.10;99.90;;;;;;6137012;23;20024;-87
2022/11/22 07:03:18;;;;;;;36.17;16.85;;;5.30;99.90;;;;;;6137828;23;20028;-88
2022/11/22 07:05:50;;;;;;;31.70;16.02;;;5.30;99.90;;;;;;6163272;23;20016;-87
2022/11/22 07:08:17;;;;;;;34.67;16.58;;;5.30;99.90;;;;;;6112146;23;20395;-86
2022/11/22 07:10:43;;;;;;;29.83;15.75;;;5.40;99.90;;;;;;6137457;23;20338;-87
2022/11/22 07:13:08;;;;;;;33.33;15.77;;;5.30;99.90;;;;;;6136175;23;20335;-87
2022/11/22 07:15:34;;;;;;;34.97;15.77;;;5.30;99.90;;;;;;6137545;23;20036;-87
2022/11/22 07:17:59;;;;;;;32.80;16.25;;;5.40;99.90;;;;;;6137870;23;20468;-86
2022/11/22 07:20:25;;;;;;;31.92;14.82;;;5.40;99.90;;;;;;6162705;23;20021;-87
2022/11/22 07:22:51;;;;;;;30.27;14.63;;;5.40;99.90;;;;;;6136805;23;20013;-87
2022/11/22 07:25:16;;;;;;;37.42;16.13;;;5.40;99.90;;;;;;6137089;23;20446;-87
2022/11/22 07:27:42;;;;;;;29.83;15.13;;;5.50;99.90;;;;;;6137159;23;20345;-88
2022/11/22 07:30:08;;;;;;;29.65;15.18;;;5.60;99.90;;;;;;6138594;23;20024;-88
2022/11/22 07:32:34;;;;;;;31.33;15.48;;;5.60;99.90;;;;;;6137130;23;20489;-87
2022/11/22 07:35:00;;;;;;;29.95;14.55;;;5.60;99.90;;;;;;6137607;23;20017;-88
2022/11/22 07:37:25;;;;;;;29.73;15.13;;;5.60;99.90;;;;;;6162224;23;20032;-88
2022/11/22 07:39:54;;;;;;;31.25;14.13;;;5.50;99.90;;;;;;6136771;23;20032;-87
2022/11/22 07:42:19;;;;;;;28.50;13.68;;;5.70;99.90;;;;;;6137360;23;20029;-87
2022/11/22 07:44:45;;;;;;;30.17;12.90;;;5.70;99.90;;;;;;6137126;23;20485;-87
2022/11/22 07:47:11;;;;;;;29.98;13.63;;;5.80;99.90;;;;;;6138499;23;20044;-87
2022/11/22 07:49:38;;;;;;;28.40;12.50;;;5.80;99.90;;;;;;6136552;23;20493;-87
2022/11/22 07:52:06;;;;;;;25.08;11.38;;;5.90;99.90;;;;;;6137839;23;20017;-86
2022/11/22 07:54:32;;;;;;;26.52;10.88;;;5.90;99.90;;;;;;6137061;23;20303;-87
2022/11/22 07:56:57;;;;;;;23.30;9.60;;;6.10;99.90;;;;;;6136920;23;20066;-88
2022/11/22 07:59:24;;;;;;;22.10;10.23;;;6.10;99.90;;;;;;6161818;23;20445;-88
2022/11/22 08:01:49;;;;;;;24.40;10.25;;;6.20;99.90;;;;;;6162138;23;20039;-87
2022/11/22 08:04:15;;;;;;;23.20;10.35;;;6.20;99.90;;;;;;6160587;23;20468;-87
2022/11/22 08:06:40;;;;;;;20.30;8.98;;;6.10;99.90;;;;;;6137075;23;20014;-88
2022/11/22 08:09:06;;;;;;;19.83;9.13;;;6.20;99.90;;;;;;6136473;23;20017;-87
2022/11/22 08:11:35;;;;;;;19.55;8.60;;;6.10;99.90;;;;;;6137658;23;20020;-87
2022/11/22 08:14:01;;;;;;;17.95;8.68;;;6.10;99.90;;;;;;6164748;23;20017;-88
2022/11/22 08:16:27;;;;;;;16.10;7.85;;;6.10;99.90;;;;;;6139465;23;20439;-87
2022/11/22 08:18:53;;;;;;;20.02;7.82;;;6.20;99.90;;;;;;6139224;23;20013;-87
2022/11/22 08:21:19;;;;;;;14.55;7.30;;;6.20;99.90;;;;;;6138315;23;20074;-88
2022/11/22 08:23:46;;;;;;;16.73;8.20;;;6.20;99.90;;;;;;6138948;22;20027;-87
2022/11/22 08:26:14;;;;;;;21.88;7.50;;;6.10;99.90;;;;;;6138815;23;20335;-87
2022/11/22 08:28:41;;;;;;;18.17;7.18;;;6.10;99.90;;;;;;6162552;23;20013;-87
2022/11/22 08:31:14;;;;;;;21.50;7.60;;;6.00;99.90;;;;;;6138981;23;20477;-87
2022/11/22 08:33:40;;;;;;;22.42;7.25;;;6.00;99.90;;;;;;6139074;23;20101;-87
2022/11/22 08:36:06;;;;;;;13.63;6.72;;;6.10;99.90;;;;;;6138953;23;20021;-87
2022/11/22 08:38:32;;;;;;;15.50;6.47;;;6.00;99.90;;;;;;6162393;23;20092;-87
2022/11/22 08:40:58;;;;;;;19.40;6.13;;;6.00;99.90;;;;;;6162977;23;20090;-86
2022/11/22 08:43:24;;;;;;;19.50;6.63;;;6.00;99.90;;;;;;6137706;23;20044;-88
2022/11/22 08:45:55;;;;;;;17.92;6.68;;;6.00;99.90;;;;;;6163823;23;20462;-87
2022/11/22 08:48:22;;;;;;;17.70;5.97;;;6.10;99.90;;;;;;6164044;23;20157;-87
2022/11/22 08:50:53;;;;;;;13.02;6.15;;;6.00;99.90;;;;;;6139277;23;20017;-86
2022/11/22 08:53:19;;;;;;;17.13;6.75;;;6.00;99.90;;;;;;6136520;23;20021;-88
2022/11/22 08:55:45;;;;;;;13.85;5.55;;;6.00;99.90;;;;;;6268191;22;20017;-87
2022/11/22 08:58:11;;;;;;;13.82;5.40;;;6.10;99.90;;;;;;6137416;23;20013;-87
2022/11/22 09:00:40;;;;;;;17.52;6.28;;;6.10;99.90;;;;;;6162788;23;20009;-86
2022/11/22 09:03:05;;;;;;;12.88;5.57;;;6.20;99.90;;;;;;6138223;23;20029;-86
2022/11/22 09:05:31;;;;;;;15.00;5.95;;;6.20;99.90;;;;;;6138082;23;20469;-88
2022/11/22 09:07:57;;;;;;;14.25;5.28;;;6.20;99.90;;;;;;6137262;23;20036;-87
2022/11/22 09:10:23;;;;;;;16.80;5.10;;;6.10;99.90;;;;;;6140231;23;20340;-87
2022/11/22 09:12:49;;;;;;;12.50;5.25;;;6.20;99.90;;;;;;6162358;23;20537;-87
2022/11/22 09:15:15;;;;;;;14.02;5.25;;;6.20;99.90;;;;;;6163157;23;20021;-87
2022/11/22 09:17:42;;;;;;;13.35;5.40;;;6.30;99.90;;;;;;6138550;23;20023;-88
2022/11/22 09:20:08;;;;;;;13.88;5.25;;;6.30;99.90;;;;;;6138122;23;20017;-86
2022/11/22 09:22:34;;;;;;;14.68;5.00;;;6.30;99.90;;;;;;6137337;23;20021;-86
2022/11/22 09:25:00;;;;;;;16.95;4.90;;;6.40;99.90;;;;;;6163114;23;20074;-87
2022/11/22 09:27:29;;;;;;;17.02;4.32;;;6.30;99.90;;;;;;6162542;23;20013;-87
2022/11/22 09:29:54;;;;;;;17.48;4.47;;;6.30;99.90;;;;;;6138172;23;20100;-87
2022/11/22 09:32:23;;;;;;;16.00;4.07;;;6.40;99.90;;;;;;6139161;23;20013;-87
2022/11/22 09:34:51;;;;;;;13.13;4.20;;;6.40;99.90;;;;;;6138376;23;20024;-88
2022/11/22 09:37:18;;;;;;;11.43;4.75;;;6.40;99.90;;;;;;6138148;23;20068;-87
2022/11/22 09:39:47;;;;;;;12.38;4.15;;;6.40;99.90;;;;;;6163158;23;20182;-86
2022/11/22 09:42:32;;;;;;;7.90;3.67;;;6.40;99.90;;;;;;6137122;23;20346;-87
2022/11/22 09:45:20;;;;;;;11.60;4.20;;;6.50;99.90;;;;;;6162695;23;20345;-87
2022/11/22 09:48:07;;;;;;;12.45;3.70;;;6.50;99.90;;;;;;6163484;23;20560;-86
2022/11/22 09:50:51;;;;;;;13.40;3.38;;;6.40;99.90;;;;;;6138997;23;20013;-87
2022/11/22 09:53:38;;;;;;;14.15;4.07;;;6.30;99.90;;;;;;6136687;23;20070;-87
2022/11/22 09:56:10;;;;;;;14.65;3.63;;;6.50;99.90;;;;;;6162538;23;20013;-88
2022/11/22 09:58:36;;;;;;;10.00;3.25;;;6.50;99.90;;;;;;6138373;23;20032;-88
2022/11/22 10:01:20;;;;;;;10.70;3.25;;;6.60;99.90;;;;;;6162752;23;20017;-87
2022/11/22 10:03:48;;;;;;;8.25;3.08;;;6.60;99.90;;;;;;6163096;23;20457;-87
2022/11/22 10:06:28;;;;;;;8.23;3.30;;;6.60;99.90;;;;;;6138254;23;20644;-87
2022/11/22 10:08:54;;;;;;;8.80;2.80;;;6.60;99.90;;;;;;6136911;23;20081;-87
2022/11/22 10:11:50;;;;;;;15.43;3.83;;;6.60;99.90;;;;;;6138095;23;20013;-87
2022/11/22 10:14:22;;;;;;;7.90;2.55;;;6.60;99.90;;;;;;6137606;23;20021;-87
2022/11/22 10:16:55;;;;;;;14.43;2.92;;;6.60;99.90;;;;;;6138512;23;20020;-87
2022/11/22 10:19:51;;;;;;;15.43;3.28;;;6.60;99.90;;;;;;6163409;23;20204;-87
2022/11/22 10:22:18;;;;;;;13.55;4.30;;;6.70;99.90;;;;;;6149190;23;20549;-87
2022/11/22 10:24:44;;;;;;;12.25;3.80;;;6.70;99.90;;;;;;6138278;23;20028;-88
2022/11/22 10:27:14;;;;;;;8.60;3.33;;;6.70;99.90;;;;;;6138775;23;20013;-86
2022/11/22 10:30:26;;;;;;;9.13;3.15;;;6.80;99.90;;;;;;6162092;23;20012;-87
2022/11/22 10:33:16;;;;;;;9.00;3.08;;;6.80;99.90;;;;;;6195619;23;20442;-87
2022/11/22 10:36:19;;;;;;;8.85;3.13;;;6.80;99.90;;;;;;6163781;23;20017;-87
2022/11/22 10:38:48;;;;;;;9.95;2.83;;;6.80;99.90;;;;;;6162137;23;20197;-87
2022/11/22 10:41:34;;;;;;;7.78;2.83;;;7.10;99.90;;;;;;6139137;23;20529;-86
2022/11/22 10:44:21;;;;;;;6.28;2.47;;;7.00;99.90;;;;;;6162743;22;20021;-86
2022/11/22 10:46:58;;;;;;;8.32;2.85;;;7.00;99.90;;;;;;6139131;22;20013;-87
2022/11/22 10:49:49;;;;;;;4.65;2.40;;;7.10;99.90;;;;;;6137611;23;20017;-87
2022/11/22 10:52:33;;;;;;;7.93;2.25;;;7.20;99.90;;;;;;6162537;23;20012;-87
2022/11/22 10:55:21;;;;;;;5.88;2.63;;;7.30;99.90;;;;;;6136823;23;20017;-86
2022/11/22 10:58:18;;;;;;;8.90;2.38;;;7.40;99.90;;;;;;6137278;23;20356;-87
2022/11/22 11:00:50;;;;;;;5.95;2.45;;;7.40;99.90;;;;;;6175439;23;20020;-87
2022/11/22 11:03:24;;;;;;;9.80;2.80;;;7.40;99.90;;;;;;6138603;23;20067;-86
2022/11/22 11:05:51;;;;;;;8.75;2.58;;;7.40;99.90;;;;;;6162896;23;20017;-88
2022/11/22 11:08:31;;;;;;;7.95;2.67;;;7.40;99.90;;;;;;6161943;23;20013;-87
2022/11/22 11:10:58;;;;;;;9.10;2.47;;;7.50;99.90;;;;;;6137661;23;20083;-87
2022/11/22 11:13:33;;;;;;;9.18;2.38;;;7.50;99.90;;;;;;6137679;23;20362;-86
2022/11/22 11:16:02;;;;;;;7.95;2.22;;;7.50;99.90;;;;;;6138821;23;20017;-88
2022/11/22 11:19:10;;;;;;;8.15;2.40;;;7.50;99.90;;;;;;6138054;23;20454;-87
2022/11/22 11:21:36;;;;;;;9.25;2.92;;;7.40;99.90;;;;;;6137831;23;20016;-87
2022/11/22 11:24:02;;;;;;;7.63;2.30;;;7.40;99.90;;;;;;6136933;23;20096;-87
2022/11/22 11:26:34;;;;;;;7.13;2.33;;;7.30;99.90;;;;;;6161758;23;20044;-87
2022/11/22 11:29:15;;;;;;;8.48;2.50;;;7.30;99.90;;;;;;6137442;23;20017;-87
2022/11/22 11:31:46;;;;;;;10.32;2.60;;;7.30;99.90;;;;;;6138862;23;20096;-87
2022/11/22 11:34:24;;;;;;;11.18;2.40;;;7.40;99.90;;;;;;6137914;23;20574;-87
2022/11/22 11:36:54;;;;;;;10.50;2.50;;;7.40;99.90;;;;;;6138064;23;20021;-87
2022/11/22 11:39:22;;;;;;;11.23;3.00;;;7.40;99.90;;;;;;6137859;23;20266;-87
2022/11/22 11:41:49;;;;;;;6.45;2.20;;;7.40;99.90;;;;;;6137389;23;20017;-86
2022/11/22 11:44:34;;;;;;;7.10;2.30;;;7.50;99.90;;;;;;6136358;23;20017;-87
2022/11/22 11:47:01;;;;;;;;;;;7.60;99.90;;;;;;6164309;23;20010;-87
2022/11/22 11:49:29;;;;;;;8.43;2.40;;;7.70;99.90;;;;;;6137882;23;19916;-86
2022/11/22 11:52:02;;;;;;;11.88;3.45;;;7.80;99.90;;;;;;6138435;23;20128;-87
2022/11/22 11:54:41;;;;;;;3.72;1.80;;;7.80;99.90;;;;;;6268829;22;20028;-87
2022/11/22 11:57:14;;;;;;;7.15;2.22;;;7.80;99.90;;;;;;6162652;23;20048;-87
2022/11/22 11:59:40;;;;;;;8.82;2.20;;;7.90;99.90;;;;;;6140007;23;20104;-88
2022/11/22 12:02:32;;;;;;;5.90;1.98;;;7.90;99.90;;;;;;6138918;23;20056;-87
2022/11/22 12:05:05;;;;;;;7.53;2.25;;;7.80;99.90;;;;;;6163199;22;20112;-88
2022/11/22 12:07:34;;;;;;;6.95;2.10;;;7.80;99.90;;;;;;6163648;23;20122;-87
2022/11/22 12:10:02;;;;;;;5.93;2.22;;;7.80;99.90;;;;;;6137460;23;20015;-87
2022/11/22 12:12:36;;;;;;;4.90;1.80;;;7.80;99.90;;;;;;6138116;23;20482;-88
2022/11/22 12:15:05;;;;;;;8.32;2.10;;;8.00;99.90;;;;;;6137783;23;20052;-87
2022/11/22 12:17:38;;;;;;;3.55;1.80;;;8.10;99.90;;;;;;6138918;23;20404;-88
2022/11/22 12:20:24;;;;;;;7.72;2.20;;;8.20;99.90;;;;;;6163679;23;20017;-87
2022/11/22 12:23:13;;;;;;;5.75;2.08;;;8.20;99.90;;;;;;6162878;23;20016;-87
2022/11/22 12:25:39;;;;;;;8.43;2.28;;;8.20;99.90;;;;;;6138254;23;20346;-87
2022/11/22 12:28:31;;;;;;;6.82;2.05;;;8.20;99.90;;;;;;6137607;23;20394;-88
2022/11/22 12:31:17;;;;;;;5.22;2.38;;;8.10;99.90;;;;;;6139533;23;20248;-86
2022/11/22 12:33:49;;;;;;;5.28;1.98;;;8.10;99.90;;;;;;6163382;22;20013;-87
2022/11/22 12:36:26;;;;;;;8.73;2.17;;;8.10;99.90;;;;;;6137637;23;20013;-87
2022/11/22 12:38:53;;;;;;;6.35;2.10;;;8.10;99.90;;;;;;6137565;23;20009;-87
2022/11/22 12:41:25;;;;;;;8.73;2.03;;;8.10;99.90;;;;;;6137563;23;20019;-87
2022/11/22 12:44:03;;;;;;;6.43;2.00;;;8.00;99.90;;;;;;6163403;23;20016;-87
2022/11/22 12:46:40;;;;;;;7.70;1.95;;;8.00;99.90;;;;;;6137960;23;20090;-87
2022/11/22 12:49:31;;;;;;;10.00;2.30;;;8.00;99.90;;;;;;6137448;23;20377;-87
2022/11/22 12:52:12;;;;;;;8.85;2.45;;;7.90;99.90;;;;;;6163303;23;20162;-87
2022/11/22 12:54:55;;;;;;;7.55;2.05;;;7.90;99.90;;;;;;6138435;23;20392;-87
2022/11/22 12:57:33;;;;;;;5.07;1.90;;;7.90;99.90;;;;;;6162737;23;20151;-86
2022/11/22 13:00:13;;;;;;;7.32;2.05;;;7.90;99.90;;;;;;6139196;23;20020;-88
2022/11/22 13:02:48;;;;;;;5.18;2.22;;;7.90;99.90;;;;;;6162353;23;20122;-87
2022/11/22 13:05:21;;;;;;;14.90;2.00;;;7.90;99.90;;;;;;6137857;23;20021;-88
2022/11/22 13:08:09;;;;;;;5.40;1.70;;;7.90;99.90;;;;;;6138345;23;20032;-86
2022/11/22 13:10:47;;;;;;;7.88;2.60;;;7.90;99.90;;;;;;6139071;22;20404;-87